Time;durP1;ratioP1;P1;durP2;ratioP2;P2;SDS_P1;SDS_P2;PMS_P1;PMS_P2;Temp;Humidity;BMP_temperature;BMP_pressure;BME280_temperature;BME280_humidity;BME280_pressure;Samples;Min_cycle;Max_cycle;Signal;HPM_P1;HPM_P2
2021/07/23 00:01:53;;;;;;;7.50;6.80;;;19.50;70.60;;;;;;5054767;28;20423;-91
2021/07/23 00:04:19;;;;;;;11.90;7.47;;;16.90;72.80;;;;;;5058394;28;20438;-91
2021/07/23 00:06:45;;;;;;;11.93;7.27;;;20.00;75.70;;;;;;5056425;28;20522;-91
2021/07/23 00:09:11;;;;;;;6.33;5.93;;;20.40;77.60;;;;;;5039685;28;20422;-90
2021/07/23 00:11:37;;;;;;;7.23;6.30;;;17.50;71.50;;;;;;5057052;28;20203;-92
2021/07/23 00:14:04;;;;;;;7.00;6.60;;;19.70;73.90;;;;;;5055922;28;20176;-90
2021/07/23 00:16:30;;;;;;;7.17;6.87;;;21.90;74.30;;;;;;5039293;28;20172;-90
2021/07/23 00:18:56;;;;;;;7.13;6.40;;;;;;;;;;5053073;28;20445;-90
2021/07/23 00:21:21;;;;;;;7.37;6.67;;;18.00;63.50;;;;;;5053330;28;20250;-89
2021/07/23 00:23:47;;;;;;;8.03;7.23;;;18.20;72.20;;;;;;5051128;28;20494;-92
2021/07/23 00:26:13;;;;;;;7.47;6.87;;;18.00;63.80;;;;;;5048614;28;20175;-89
2021/07/23 00:28:40;;;;;;;7.13;6.60;;;18.70;70.90;;;;;;5049157;28;20184;-91
2021/07/23 00:31:05;;;;;;;6.73;6.33;;;18.60;67.10;;;;;;5046424;28;20437;-90
2021/07/23 00:33:32;;;;;;;7.53;6.90;;;18.30;71.10;;;;;;5049354;28;20407;-91
2021/07/23 00:35:59;;;;;;;7.10;6.60;;;16.60;67.70;;;;;;5052765;28;20176;-90
2021/07/23 00:38:25;;;;;;;7.50;6.93;;;;;;;;;;5034480;28;20449;-90
2021/07/23 00:40:50;;;;;;;10.17;6.83;;;17.90;63.70;;;;;;5051609;28;20202;-89
2021/07/23 00:43:16;;;;;;;8.43;6.90;;;20.10;71.00;;;;;;5051224;28;20961;-90
2021/07/23 00:45:44;;;;;;;7.93;7.20;;;16.00;67.90;;;;;;5051915;28;20195;-90
2021/07/23 00:48:13;;;;;;;8.17;7.40;;;17.20;66.30;;;;;;5036373;28;20180;-91
2021/07/23 00:50:39;;;;;;;8.60;8.07;;;18.70;66.50;;;;;;5049961;28;20454;-90
2021/07/23 00:53:04;;;;;;;8.20;7.40;;;17.30;71.90;;;;;;5052146;28;20403;-89
2021/07/23 00:55:30;;;;;;;7.27;6.70;;;17.30;72.20;;;;;;5059647;28;20164;-90
2021/07/23 00:57:59;;;;;;;6.87;6.40;;;17.70;70.90;;;;;;5059676;28;20195;-90
2021/07/23 01:00:26;;;;;;;7.80;7.30;;;17.20;71.00;;;;;;5057392;28;20431;-90
2021/07/23 01:02:55;;;;;;;7.33;6.80;;;17.00;70.10;;;;;;5054703;28;20449;-90
2021/07/23 01:05:23;;;;;;;9.00;7.17;;;19.50;74.10;;;;;;5031049;28;20457;-90
2021/07/23 01:07:49;;;;;;;7.57;6.97;;;18.10;69.50;;;;;;5049024;28;20471;-91
2021/07/23 01:10:16;;;;;;;7.60;7.20;;;19.30;70.80;;;;;;5048926;28;20468;-91
2021/07/23 01:12:42;;;;;;;7.00;6.63;;;18.00;72.40;;;;;;5050789;28;20495;-91
2021/07/23 01:15:10;;;;;;;6.83;6.50;;;18.60;73.10;;;;;;5052820;28;20417;-91
2021/07/23 01:17:36;;;;;;;7.33;6.60;;;19.10;74.60;;;;;;5050430;28;20898;-91
2021/07/23 01:20:16;;;;;;;7.37;6.77;;;17.90;74.40;;;;;;5052257;28;20411;-90
2021/07/23 01:22:43;;;;;;;7.63;6.97;;;19.60;73.10;;;;;;5050442;28;20501;-90
2021/07/23 01:25:10;;;;;;;7.30;6.80;;;16.90;68.80;;;;;;5054066;28;20478;-91
2021/07/23 01:27:43;;;;;;;8.53;6.60;;;17.70;70.00;;;;;;5053106;28;20422;-90
2021/07/23 01:30:10;;;;;;;7.10;6.73;;;15.90;72.30;;;;;;5053311;28;20486;-89
2021/07/23 01:32:36;;;;;;;6.97;6.57;;;17.40;71.10;;;;;;5054744;28;20403;-90
2021/07/23 01:35:06;;;;;;;7.40;6.90;;;17.40;74.10;;;;;;5053749;28;20469;-91
2021/07/23 01:37:33;;;;;;;7.60;7.00;;;18.90;72.50;;;;;;5050221;28;20421;-90
2021/07/23 01:39:59;;;;;;;7.60;6.87;;;16.20;79.20;;;;;;5046321;28;20458;-90
2021/07/23 01:42:27;;;;;;;7.83;7.20;;;17.70;74.20;;;;;;5044335;28;20427;-90
2021/07/23 01:44:53;;;;;;;7.73;7.20;;;16.70;71.20;;;;;;5045569;28;20819;-90
2021/07/23 01:47:19;;;;;;;11.03;6.33;;;17.50;77.90;;;;;;5044310;28;20410;-89
2021/07/23 01:49:45;;;;;;;7.50;6.97;;;17.50;78.20;;;;;;5044705;28;20187;-90
2021/07/23 01:52:11;;;;;;;7.73;7.13;;;;;;;;;;5043744;28;20423;-90
2021/07/23 01:54:37;;;;;;;9.30;7.63;;;16.90;74.30;;;;;;5044446;28;20183;-90
2021/07/23 01:57:03;;;;;;;7.63;7.13;;;16.60;77.60;;;;;;5049934;28;20437;-89
2021/07/23 01:59:31;;;;;;;8.97;8.13;;;17.40;85.10;;;;;;5053682;28;20171;-89
2021/07/23 02:01:56;;;;;;;8.17;7.57;;;18.00;82.40;;;;;;5053227;28;20502;-89
2021/07/23 02:04:26;;;;;;;8.30;7.60;;;18.50;89.00;;;;;;5051209;28;20470;-89
2021/07/23 02:06:52;;;;;;;10.57;9.87;;;14.30;81.10;;;;;;5047219;28;20172;-89
2021/07/23 02:09:18;;;;;;;11.70;7.80;;;17.20;89.60;;;;;;5044978;28;20435;-89
2021/07/23 02:11:43;;;;;;;8.03;7.40;;;15.40;81.10;;;;;;5043551;28;20410;-90
2021/07/23 02:14:12;;;;;;;8.77;8.17;;;16.60;81.80;;;;;;5042455;28;20178;-89
2021/07/23 02:16:38;;;;;;;8.50;7.63;;;15.50;83.00;;;;;;5043382;28;20218;-90
2021/07/23 02:19:04;;;;;;;10.00;7.30;;;18.20;88.20;;;;;;5044243;28;20423;-90
2021/07/23 02:21:35;;;;;;;8.00;7.40;;;18.40;89.80;;;;;;5042146;28;20467;-89
2021/07/23 02:24:02;;;;;;;7.77;7.33;;;16.00;82.40;;;;;;5044463;28;20474;-90
2021/07/23 02:26:28;;;;;;;8.23;7.53;;;16.10;85.70;;;;;;5047078;28;20422;-91
2021/07/23 02:28:54;;;;;;;7.23;6.73;;;14.80;86.10;;;;;;5047680;28;20419;-90
2021/07/23 02:31:19;;;;;;;8.13;7.63;;;18.60;91.40;;;;;;5024986;28;20203;-90
2021/07/23 02:33:45;;;;;;;9.03;8.20;;;18.60;91.10;;;;;;5041273;28;20824;-91
2021/07/23 02:36:13;;;;;;;7.60;7.10;;;18.70;91.60;;;;;;5041258;28;20726;-91
2021/07/23 02:38:38;;;;;;;8.00;7.40;;;15.50;86.90;;;;;;5041050;28;20435;-90
2021/07/23 02:41:04;;;;;;;7.73;7.20;;;17.10;90.30;;;;;;5042194;28;20421;-91
2021/07/23 02:43:30;;;;;;;7.40;7.00;;;19.20;92.70;;;;;;5041922;28;20211;-89
2021/07/23 02:45:55;;;;;;;7.83;7.27;;;18.10;92.00;;;;;;5042274;28;20219;-89
2021/07/23 02:48:21;;;;;;;8.53;7.90;;;15.60;90.70;;;;;;5043460;28;20198;-90
2021/07/23 02:50:47;;;;;;;8.40;7.80;;;19.20;91.70;;;;;;5042045;28;20176;-90
2021/07/23 02:53:13;;;;;;;7.60;7.10;;;17.90;89.70;;;;;;5027374;28;20653;-90
2021/07/23 02:55:39;;;;;;;8.83;8.20;;;18.20;93.00;;;;;;5044045;28;20398;-91
2021/07/23 02:58:05;;;;;;;8.07;7.37;;;;;;;;;;5044648;28;20548;-90
2021/07/23 03:00:32;;;;;;;8.47;7.87;;;15.60;86.80;;;;;;5044807;28;20477;-90
2021/07/23 03:02:57;;;;;;;8.70;8.10;;;15.50;87.50;;;;;;5046033;28;20429;-90
2021/07/23 03:05:23;;;;;;;8.60;8.00;;;;;;;;;;5045806;28;20426;-90
2021/07/23 03:07:53;;;;;;;8.10;7.50;;;15.50;87.20;;;;;;5046199;28;20182;-90
2021/07/23 03:10:18;;;;;;;10.40;9.70;;;18.40;92.40;;;;;;5051748;28;20840;-90
2021/07/23 03:12:45;;;;;;;9.07;8.27;;;18.70;92.60;;;;;;5052731;28;20456;-89
2021/07/23 03:15:12;;;;;;;8.97;8.20;;;15.40;87.80;;;;;;5053742;28;20176;-89
2021/07/23 03:17:38;;;;;;;9.87;8.67;;;14.80;89.00;;;;;;5052384;28;20463;-89
2021/07/23 03:20:05;;;;;;;8.27;7.60;;;15.20;91.10;;;;;;5046155;28;20418;-90
2021/07/23 03:22:32;;;;;;;8.83;8.20;;;15.90;90.30;;;;;;5042966;28;21102;-90
2021/07/23 03:25:00;;;;;;;8.63;8.13;;;15.30;88.70;;;;;;5049200;28;20542;-89
2021/07/23 03:27:26;;;;;;;8.20;7.70;;;14.90;90.50;;;;;;4699797;28;9999781;-89
2021/07/23 03:29:53;;;;;;;8.23;7.63;;;18.20;95.00;;;;;;5050245;28;20402;-89
2021/07/23 03:32:19;;;;;;;9.00;8.20;;;16.90;93.20;;;;;;5049175;28;20187;-89
2021/07/23 03:34:44;;;;;;;10.07;9.17;;;16.30;93.40;;;;;;5046363;28;20906;-88
2021/07/23 03:37:10;;;;;;;9.27;8.57;;;18.40;94.80;;;;;;5043136;28;20615;-90
2021/07/23 03:39:37;;;;;;;8.47;7.87;;;15.80;92.30;;;;;;5044089;28;20176;-89
2021/07/23 03:42:03;;;;;;;9.13;8.50;;;16.90;92.60;;;;;;5045350;28;20187;-91
2021/07/23 03:44:29;;;;;;;8.63;7.93;;;15.10;94.20;;;;;;5042422;28;20494;-91
2021/07/23 03:46:55;;;;;;;9.90;8.77;;;;;;;;;;5041952;28;20418;-91
2021/07/23 03:49:21;;;;;;;9.00;8.40;;;15.10;90.50;;;;;;5041636;28;20180;-91
2021/07/23 03:51:46;;;;;;;8.97;8.27;;;14.40;93.70;;;;;;5040263;28;20501;-90
2021/07/23 03:54:12;;;;;;;9.93;8.97;;;;;;;;;;5042779;28;20488;-90
2021/07/23 03:56:38;;;;;;;11.13;9.10;;;15.10;90.30;;;;;;5041878;28;20422;-90
2021/07/23 03:59:09;;;;;;;9.83;8.20;;;16.90;94.70;;;;;;5040898;28;20456;-88
2021/07/23 04:01:38;;;;;;;9.57;8.60;;;15.00;91.10;;;;;;5041303;28;20179;-90
2021/07/23 04:04:04;;;;;;;9.93;9.13;;;18.40;94.20;;;;;;5041769;28;20616;-91
2021/07/23 04:06:30;;;;;;;13.27;12.17;;;;;;;;;;5038516;28;20446;-89
2021/07/23 04:08:55;;;;;;;16.53;10.37;;;15.10;90.60;;;;;;5042594;28;20172;-90
2021/07/23 04:11:37;;;;;;;15.80;10.27;;;15.00;90.80;;;;;;5041723;28;20419;-89
2021/07/23 04:14:03;;;;;;;9.93;9.00;;;17.30;92.90;;;;;;5040059;28;20180;-88
2021/07/23 04:16:28;;;;;;;9.70;8.80;;;16.20;93.40;;;;;;5043459;28;20425;-90
2021/07/23 04:18:54;;;;;;;9.30;8.40;;;16.10;92.90;;;;;;5040485;28;20267;-89
2021/07/23 04:21:20;;;;;;;21.07;9.70;;;14.70;93.30;;;;;;5040359;28;20219;-90
2021/07/23 04:23:46;;;;;;;11.10;9.60;;;;;;;;;;5041447;28;20314;-90
2021/07/23 04:26:11;;;;;;;9.53;8.60;;;15.20;90.10;;;;;;5040941;28;20194;-91
2021/07/23 04:28:37;;;;;;;9.70;8.70;;;;;;;;;;5042052;28;20475;-90
2021/07/23 04:31:03;;;;;;;10.63;9.60;;;15.20;89.20;;;;;;5040157;28;20171;-89
2021/07/23 04:33:29;;;;;;;11.27;10.20;;;;;;;;;;5040483;28;20419;-88
2021/07/23 04:35:54;;;;;;;12.03;10.30;;;15.30;87.50;;;;;;5051420;28;20243;-91
2021/07/23 04:38:20;;;;;;;11.37;10.40;;;;;;;;;;5057127;28;20407;-89
2021/07/23 04:40:46;;;;;;;10.10;9.30;;;15.40;87.70;;;;;;5047663;28;20179;-90
2021/07/23 04:43:12;;;;;;;12.23;9.20;;;;;;;;;;5041858;28;20521;-89
2021/07/23 04:45:40;;;;;;;10.27;9.23;;;15.50;86.50;;;;;;5041674;28;20635;-89
2021/07/23 04:48:06;;;;;;;11.27;10.23;;;17.80;93.20;;;;;;5042576;28;20924;-90
2021/07/23 04:50:31;;;;;;;10.87;9.97;;;16.40;91.00;;;;;;5041945;28;20406;-89
2021/07/23 04:52:57;;;;;;;11.30;10.03;;;18.60;91.00;;;;;;5042264;28;20168;-90
2021/07/23 04:55:23;;;;;;;10.13;9.40;;;17.70;92.10;;;;;;5027159;28;20240;-90
2021/07/23 04:57:49;;;;;;;16.83;10.00;;;18.20;89.30;;;;;;5043706;28;20179;-90
2021/07/23 05:00:16;;;;;;;11.40;9.20;;;18.10;90.70;;;;;;5045577;28;20418;-91
2021/07/23 05:02:42;;;;;;;10.57;9.67;;;16.40;81.80;;;;;;5045029;28;20425;-91
2021/07/23 05:05:12;;;;;;;9.37;8.73;;;20.40;88.10;;;;;;5045900;28;20462;-89
2021/07/23 05:07:41;;;;;;;10.67;9.93;;;17.80;79.30;;;;;;5045203;28;20419;-92
2021/07/23 05:10:09;;;;;;;10.27;9.23;;;19.90;86.20;;;;;;5044959;28;20484;-90
2021/07/23 05:12:37;;;;;;;11.47;10.47;;;16.90;76.30;;;;;;5046191;28;20415;-88
2021/07/23 05:15:35;;;;;;;9.57;8.90;;;20.10;77.50;;;;;;5049136;28;20411;-92
2021/07/23 05:18:26;;;;;;;;;;;;;;;;;;;;;
2021/07/23 05:20:59;;;;;;;11.37;9.20;;;18.40;76.00;;;;;;5048745;28;20521;-91
2021/07/23 05:23:30;;;;;;;10.57;9.77;;;18.80;74.90;;;;;;5043831;28;20473;-88
2021/07/23 05:26:05;;;;;;;10.10;9.20;;;18.20;76.20;;;;;;5026690;28;20430;-91
2021/07/23 05:28:38;;;;;;;10.50;9.43;;;19.90;72.90;;;;;;5041516;28;20425;-91
2021/07/23 05:31:14;;;;;;;9.30;8.40;;;21.30;74.10;;;;;;5042055;28;20426;-90
2021/07/23 05:33:42;;;;;;;10.83;9.63;;;19.10;72.10;;;;;;5041216;28;20955;-90
2021/07/23 05:36:09;;;;;;;11.43;10.50;;;19.00;68.00;;;;;;5042111;28;20442;-91
2021/07/23 05:38:35;;;;;;;10.53;9.50;;;20.40;73.80;;;;;;5025291;28;20445;-90
2021/07/23 05:41:11;;;;;;;11.70;8.90;;;19.60;67.30;;;;;;5045492;28;20430;-91
2021/07/23 05:43:43;;;;;;;10.27;9.33;;;22.70;64.70;;;;;;5045870;28;20493;-89
2021/07/23 05:46:09;;;;;;;9.83;9.00;;;20.30;62.90;;;;;;5046653;28;20501;-90
2021/07/23 05:48:36;;;;;;;10.07;9.17;;;20.00;64.10;;;;;;5047997;28;20406;-87
2021/07/23 05:51:02;;;;;;;11.27;10.37;;;20.50;59.70;;;;;;5047462;28;20941;-90
2021/07/23 05:53:35;;;;;;;12.10;10.90;;;22.70;65.90;;;;;;5048417;28;20418;-87
2021/07/23 05:56:04;;;;;;;10.70;9.80;;;20.40;59.20;;;;;;5051456;28;20445;-90
2021/07/23 05:58:31;;;;;;;11.67;10.10;;;20.40;58.70;;;;;;5052198;28;20427;-89
2021/07/23 06:01:03;;;;;;;10.33;9.37;;;21.30;59.30;;;;;;5050377;28;20461;-89
2021/07/23 06:03:28;;;;;;;11.37;10.37;;;22.90;58.70;;;;;;5048352;28;20469;-89
2021/07/23 06:05:54;;;;;;;10.90;9.90;;;22.60;62.40;;;;;;5046430;28;20505;-89
2021/07/23 06:08:20;;;;;;;11.10;9.83;;;21.40;62.00;;;;;;5048598;28;20171;-90
2021/07/23 06:10:46;;;;;;;10.63;9.63;;;20.40;57.40;;;;;;5048315;28;20168;-90
2021/07/23 06:13:11;;;;;;;12.03;10.93;;;20.40;57.10;;;;;;5047168;28;20172;-90
2021/07/23 06:15:37;;;;;;;11.00;9.97;;;21.20;56.70;;;;;;5047188;28;20171;-89
2021/07/23 06:18:03;;;;;;;13.10;10.60;;;21.60;54.00;;;;;;5047153;28;20207;-87
2021/07/23 06:20:35;;;;;;;8.93;8.23;;;22.00;57.50;;;;;;5040310;28;20210;-89
2021/07/23 06:23:03;;;;;;;10.80;10.00;;;23.40;55.10;;;;;;5028197;28;20223;-89
2021/07/23 06:25:29;;;;;;;11.07;9.97;;;22.70;54.60;;;;;;5026121;28;20431;-90
2021/07/23 06:28:03;;;;;;;11.07;10.03;;;22.70;55.80;;;;;;5007218;28;20270;-89
2021/07/23 06:30:31;;;;;;;12.40;9.67;;;22.50;55.30;;;;;;5031734;28;20183;-91
2021/07/23 06:33:03;;;;;;;10.60;9.80;;;24.30;54.70;;;;;;5012762;28;20444;-91
2021/07/23 06:35:32;;;;;;;10.13;9.33;;;22.20;54.40;;;;;;4995403;28;20427;-89
2021/07/23 06:37:59;;;;;;;10.87;9.93;;;23.50;53.80;;;;;;5009375;28;20427;-92
2021/07/23 06:40:44;;;;;;;11.63;10.60;;;23.60;52.80;;;;;;5011202;28;20418;-92
2021/07/23 06:43:22;;;;;;;9.47;8.73;;;22.90;50.80;;;;;;5029264;28;20534;-90
2021/07/23 06:46:02;;;;;;;10.63;9.73;;;23.00;52.00;;;;;;5014360;28;20449;-89
2021/07/23 06:48:33;;;;;;;11.50;9.63;;;23.60;50.60;;;;;;5031870;28;20407;-92
2021/07/23 06:51:07;;;;;;;12.10;11.03;;;24.60;52.50;;;;;;5009718;28;20446;-92
2021/07/23 06:53:33;;;;;;;12.73;11.73;;;24.00;52.20;;;;;;5011142;28;20438;-90
2021/07/23 06:55:58;;;;;;;9.97;9.37;;;25.10;51.40;;;;;;5007774;28;20420;-90
2021/07/23 06:58:24;;;;;;;12.43;9.43;;;23.50;50.50;;;;;;5005055;28;20176;-91
2021/07/23 07:00:50;;;;;;;10.60;9.80;;;24.10;53.40;;;;;;5006478;28;20172;-92
2021/07/23 07:03:16;;;;;;;9.47;8.77;;;26.10;51.40;;;;;;5009317;28;20173;-89
2021/07/23 07:05:50;;;;;;;9.23;8.53;;;25.00;51.00;;;;;;5029751;28;20483;-89
2021/07/23 07:08:36;;;;;;;10.90;9.77;;;26.20;52.20;;;;;;5015249;28;20172;-90
2021/07/23 07:11:04;;;;;;;9.17;8.50;;;29.40;52.60;;;;;;5026754;28;20474;-90
2021/07/23 07:13:30;;;;;;;9.30;8.47;;;24.90;46.90;;;;;;5028273;28;20922;-89
2021/07/23 07:15:57;;;;;;;9.57;8.97;;;26.20;48.60;;;;;;5030538;28;20414;-89
2021/07/23 07:18:23;;;;;;;9.50;8.63;;;25.70;46.60;;;;;;5152332;22;20486;-90
2021/07/23 07:20:49;;;;;;;8.47;7.87;;;24.90;48.50;;;;;;5026637;28;20427;-90
2021/07/23 07:23:15;;;;;;;10.10;9.30;;;29.30;51.10;;;;;;5011789;28;20485;-89
2021/07/23 07:25:41;;;;;;;9.80;9.00;;;;;;;;;;5029380;28;20200;-88
2021/07/23 07:30:52;;;;;;;9.20;8.67;;;26.50;68.50;;;;;;5030724;28;20491;-92
2021/07/23 07:33:20;;;;;;;12.63;11.33;;;27.40;48.20;;;;;;5011918;28;20476;-90
2021/07/23 07:35:50;;;;;;;8.80;8.10;;;27.00;46.90;;;;;;5013770;28;20434;-91
2021/07/23 07:38:17;;;;;;;7.73;7.30;;;27.50;44.30;;;;;;5014277;28;20419;-90
2021/07/23 07:40:50;;;;;;;7.97;7.27;;;29.00;48.20;;;;;;5028248;28;20416;-90
2021/07/23 07:43:24;;;;;;;9.27;8.67;;;27.70;42.00;;;;;;5029938;28;20485;-90
2021/07/23 07:45:54;;;;;;;7.80;7.00;;;29.30;44.70;;;;;;5031474;28;20431;-87
2021/07/23 07:48:21;;;;;;;7.47;6.97;;;27.70;42.40;;;;;;5009832;28;20439;-91
2021/07/23 07:50:48;;;;;;;10.40;7.57;;;28.00;42.70;;;;;;5030323;28;20434;-92
2021/07/23 07:53:16;;;;;;;8.00;7.60;;;28.50;41.00;;;;;;5028798;28;20408;-91
2021/07/23 07:55:52;;;;;;;8.97;8.27;;;28.30;42.00;;;;;;5032302;28;20232;-91
2021/07/23 07:58:22;;;;;;;10.10;6.70;;;28.00;42.00;;;;;;5031889;28;20431;-91
2021/07/23 08:00:57;;;;;;;8.10;7.60;;;28.80;45.30;;;;;;5280657;22;20487;-92
2021/07/23 08:03:26;;;;;;;7.50;7.00;;;30.40;45.40;;;;;;5069032;28;20422;-90
2021/07/23 08:06:00;;;;;;;13.53;8.83;;;28.30;42.60;;;;;;5054220;28;20425;-91
2021/07/23 08:08:31;;;;;;;7.20;6.83;;;30.00;42.00;;;;;;5050924;28;20429;-91
2021/07/23 08:10:58;;;;;;;8.03;7.57;;;30.40;44.30;;;;;;5035542;28;20422;-92
2021/07/23 08:13:31;;;;;;;7.93;7.10;;;30.00;40.40;;;;;;4724354;28;9999623;-91
2021/07/23 08:15:58;;;;;;;6.73;6.30;;;29.20;39.60;;;;;;5059478;28;20217;-92
2021/07/23 08:18:35;;;;;;;7.37;6.87;;;29.60;40.30;;;;;;5057472;28;20533;-93
2021/07/23 08:21:05;;;;;;;7.90;6.53;;;29.60;39.50;;;;;;5053957;28;20428;-89
2021/07/23 08:23:35;;;;;;;8.23;7.57;;;29.70;44.50;;;;;;5056393;28;20464;-90
2021/07/23 08:26:04;;;;;;;8.40;7.60;;;29.60;41.00;;;;;;5057364;28;20442;-93
2021/07/23 08:28:33;;;;;;;7.97;7.07;;;31.00;42.40;;;;;;5052511;28;20436;-92
2021/07/23 08:31:16;;;;;;;7.03;6.37;;;34.50;43.20;;;;;;5231209;22;20514;-90
2021/07/23 08:33:43;;;;;;;9.10;8.60;;;31.20;42.50;;;;;;5050994;28;20459;-92
2021/07/23 08:36:21;;;;;;;6.73;6.33;;;30.30;38.80;;;;;;5063939;22;20419;-90
2021/07/23 08:39:09;;;;;;;7.10;6.43;;;30.40;42.40;;;;;;5048634;28;20522;-90
2021/07/23 08:41:38;;;;;;;7.33;6.73;;;31.40;39.40;;;;;;5050041;28;20437;-91
2021/07/23 08:46:49;;;;;;;7.87;7.20;;;30.90;37.00;;;;;;5068811;22;20464;-93
2021/07/23 08:49:20;;;;;;;7.77;7.20;;;32.70;37.80;;;;;;5033881;28;20418;-91
2021/07/23 08:51:56;;;;;;;6.40;6.20;;;31.60;36.50;;;;;;5053456;28;20785;-92
2021/07/23 08:54:29;;;;;;;8.90;8.13;;;31.90;55.70;;;;;;5071589;28;20776;-92
2021/07/23 08:57:09;;;;;;;8.57;6.83;;;31.70;46.30;;;;;;5035343;28;20456;-93
2021/07/23 08:59:35;;;;;;;8.80;8.40;;;33.10;37.00;;;;;;5048120;28;20424;-89
2021/07/23 09:02:05;;;;;;;7.20;6.80;;;32.10;37.50;;;;;;5048574;28;20438;-91
2021/07/23 09:04:36;;;;;;;8.30;7.67;;;32.80;41.10;;;;;;5048207;28;20481;-92
2021/07/23 09:07:31;;;;;;;8.03;7.27;;;32.80;34.10;;;;;;5052012;28;20749;-90
2021/07/23 09:10:06;;;;;;;8.43;7.93;;;34.00;38.00;;;;;;5050741;28;20422;-89
2021/07/23 09:12:53;;;;;;;9.23;8.53;;;33.90;33.90;;;;;;5054411;28;20417;-90
2021/07/23 09:15:24;;;;;;;7.83;7.17;;;33.20;33.90;;;;;;5031964;28;20418;-91
2021/07/23 09:17:55;;;;;;;7.23;6.83;;;33.20;33.80;;;;;;5047357;28;20418;-92
2021/07/23 09:20:27;;;;;;;6.43;6.13;;;34.10;34.10;;;;;;5048950;28;20439;-91
2021/07/23 09:22:56;;;;;;;7.57;6.93;;;33.60;56.70;;;;;;5049175;28;20425;-88
2021/07/23 09:25:38;;;;;;;8.13;7.43;;;33.70;40.40;;;;;;5048474;28;20453;-88
2021/07/23 09:28:24;;;;;;;8.73;7.87;;;34.00;33.30;;;;;;5047453;28;20437;-89
2021/07/23 09:30:55;;;;;;;7.97;7.67;;;32.80;34.30;;;;;;5050010;28;20505;-93
2021/07/23 09:33:32;;;;;;;8.50;7.47;;;34.70;34.40;;;;;;5035001;28;20424;-92
2021/07/23 09:36:04;;;;;;;9.20;8.53;;;32.00;32.80;;;;;;5048916;28;20824;-90
2021/07/23 09:38:44;;;;;;;7.83;7.40;;;31.90;33.80;;;;;;5064379;28;20405;-89
2021/07/23 09:41:22;;;;;;;8.00;7.60;;;32.90;32.70;;;;;;5061591;28;20486;-90
2021/07/23 09:44:15;;;;;;;83.17;15.50;;;34.20;36.00;;;;;;5042712;28;20544;-90
2021/07/23 09:46:41;;;;;;;20.80;10.20;;;32.40;34.50;;;;;;5040089;28;20517;-92
2021/07/23 09:49:20;;;;;;;8.13;7.53;;;33.00;35.70;;;;;;5040186;28;20473;-90
2021/07/23 09:51:50;;;;;;;9.50;8.47;;;32.70;35.90;;;;;;5035193;28;20431;-90
2021/07/23 09:54:18;;;;;;;8.43;7.83;;;34.00;35.70;;;;;;5038418;28;20415;-93
2021/07/23 09:57:00;;;;;;;9.57;8.87;;;33.20;33.50;;;;;;5024848;28;20858;-89
2021/07/23 09:59:43;;;;;;;9.73;8.90;;;34.00;32.70;;;;;;5023223;28;20411;-90
2021/07/23 10:02:21;;;;;;;9.20;8.60;;;33.60;32.70;;;;;;5023845;28;20764;-92
2021/07/23 10:05:04;;;;;;;8.80;8.10;;;35.90;42.20;;;;;;5038498;28;20517;-92
2021/07/23 10:07:52;;;;;;;8.00;7.50;;;35.20;31.70;;;;;;5046113;28;20399;-91
2021/07/23 10:10:27;;;;;;;9.93;9.13;;;35.60;31.70;;;;;;5046159;28;20418;-91
2021/07/23 10:13:03;;;;;;;9.30;8.57;;;35.20;32.50;;;;;;5043234;28;20506;-88
2021/07/23 10:15:29;;;;;;;8.53;7.97;;;35.00;32.10;;;;;;5051742;28;20398;-88
2021/07/23 10:17:55;;;;;;;9.30;8.73;;;34.60;32.40;;;;;;5045686;28;20414;-90
2021/07/23 10:20:21;;;;;;;8.90;8.30;;;35.60;36.50;;;;;;5045576;28;20417;-90
2021/07/23 10:22:56;;;;;;;10.77;9.67;;;35.50;31.20;;;;;;5043307;28;20190;-90
2021/07/23 10:25:24;;;;;;;9.60;8.87;;;36.00;32.10;;;;;;5048743;28;20211;-90
2021/07/23 10:27:50;;;;;;;9.43;8.83;;;35.50;32.10;;;;;;5043585;28;20415;-91
2021/07/23 10:30:29;;;;;;;10.30;9.50;;;35.90;40.20;;;;;;5046672;28;20418;-93
2021/07/23 10:32:55;;;;;;;9.47;8.73;;;36.20;37.30;;;;;;5046442;28;20407;-92
2021/07/23 10:35:24;;;;;;;11.07;9.40;;;36.30;30.30;;;;;;5044473;28;20426;-91
2021/07/23 10:38:00;;;;;;;10.03;9.27;;;36.10;32.30;;;;;;5045623;28;20199;-89
2021/07/23 10:40:40;;;;;;;11.27;10.40;;;36.20;30.20;;;;;;5040388;28;20398;-90
2021/07/23 10:43:32;;;;;;;11.17;10.33;;;35.90;30.20;;;;;;5024589;28;20431;-91
2021/07/23 10:46:00;;;;;;;10.13;9.23;;;35.40;30.70;;;;;;5053969;28;20532;-88
2021/07/23 10:48:47;;;;;;;11.23;10.53;;;35.40;40.00;;;;;;5045509;28;20448;-90
2021/07/23 10:51:54;;;;;;;10.33;9.20;;;34.30;31.40;;;;;;5061044;28;20418;-92
2021/07/23 10:54:22;;;;;;;10.27;9.03;;;35.00;31.70;;;;;;5050925;28;20425;-90
2021/07/23 10:56:58;;;;;;;10.67;10.07;;;35.00;31.90;;;;;;5098346;22;20489;-92
2021/07/23 10:59:41;;;;;;;10.23;9.53;;;36.30;41.60;;;;;;5133766;22;20973;-89
2021/07/23 11:02:10;;;;;;;9.77;9.13;;;36.80;41.30;;;;;;5038263;28;20461;-89
2021/07/23 11:04:38;;;;;;;10.30;9.50;;;36.60;30.00;;;;;;5057935;28;20500;-89
2021/07/23 11:07:05;;;;;;;10.50;9.70;;;36.60;29.90;;;;;;5044887;28;20418;-91
2021/07/23 11:09:31;;;;;;;10.40;9.47;;;37.40;39.20;;;;;;5065368;28;20528;-94
2021/07/23 11:12:18;;;;;;;9.53;8.97;;;36.60;29.80;;;;;;5047721;28;20433;-90
2021/07/23 11:14:55;;;;;;;9.43;8.63;;;35.90;30.50;;;;;;5044199;28;20505;-96
2021/07/23 11:17:22;;;;;;;9.80;8.90;;;36.30;38.10;;;;;;5045890;28;20417;-88
2021/07/23 11:19:49;;;;;;;10.67;10.00;;;36.80;30.00;;;;;;5065271;28;20738;-94
2021/07/23 11:22:30;;;;;;;10.40;9.60;;;37.50;35.30;;;;;;5060964;28;20501;-88
2021/07/23 11:25:01;;;;;;;10.10;9.40;;;37.40;29.80;;;;;;5046548;28;20488;-89
2021/07/23 11:27:28;;;;;;;9.93;9.17;;;37.40;31.70;;;;;;5063455;28;20417;-92
2021/07/23 11:30:00;;;;;;;9.37;8.87;;;37.60;29.60;;;;;;5048762;28;20418;-93
2021/07/23 11:32:30;;;;;;;10.13;9.20;;;;;;;;;;5053835;28;20414;-90
2021/07/23 11:35:08;;;;;;;13.07;11.87;;;;;;;;;;5044108;28;20426;-89
2021/07/23 11:37:37;;;;;;;10.00;9.40;;;;;;;;;;5047059;28;20414;-91
2021/07/23 11:40:04;;;;;;;9.63;9.13;;;;;;;;;;5045956;28;20449;-92
2021/07/23 11:42:36;;;;;;;9.67;8.97;;;38.10;28.80;;;;;;5068151;28;20401;-87
2021/07/23 11:45:05;;;;;;;9.43;8.80;;;38.40;29.10;;;;;;5066335;28;20499;-94
2021/07/23 11:47:38;;;;;;;9.57;8.93;;;38.60;28.80;;;;;;5049398;28;20418;-90
2021/07/23 11:50:07;;;;;;;8.83;8.33;;;38.10;29.10;;;;;;5051991;28;20413;-89
2021/07/23 11:52:33;;;;;;;9.10;8.60;;;38.00;29.40;;;;;;5067377;28;20489;-87
2021/07/23 11:55:04;;;;;;;9.90;8.60;;;38.60;28.60;;;;;;5068074;28;20447;-89
2021/07/23 11:57:40;;;;;;;9.37;8.47;;;38.60;28.40;;;;;;5069561;28;20481;-88
2021/07/23 12:00:24;;;;;;;12.30;8.00;;;38.70;28.70;;;;;;5050529;28;20456;-93
2021/07/23 12:02:53;;;;;;;9.20;8.80;;;38.80;29.30;;;;;;5050213;28;20402;-89
2021/07/23 12:05:20;;;;;;;8.93;8.53;;;38.70;33.70;;;;;;5048330;28;20469;-87
2021/07/23 12:08:14;;;;;;;9.87;8.90;;;38.70;28.30;;;;;;5049378;28;20412;-88
2021/07/23 12:11:00;;;;;;;9.87;9.17;;;38.10;28.10;;;;;;5034103;28;20408;-91
2021/07/23 12:13:28;;;;;;;9.23;8.53;;;39.60;30.50;;;;;;5046146;28;20409;-90
2021/07/23 12:15:56;;;;;;;10.23;9.57;;;39.20;31.40;;;;;;5050613;28;20861;-89
2021/07/23 12:18:23;;;;;;;10.40;9.73;;;36.30;30.00;;;;;;5065765;28;20409;-90
2021/07/23 12:20:50;;;;;;;9.77;8.87;;;36.60;30.00;;;;;;5053764;28;20417;-92
2021/07/23 12:23:24;;;;;;;10.37;9.77;;;37.80;29.10;;;;;;5049359;28;20417;-94
2021/07/23 12:25:50;;;;;;;10.00;9.30;;;37.60;29.20;;;;;;4715364;28;10000215;-91
2021/07/23 12:28:18;;;;;;;7.90;7.30;;;37.00;30.20;;;;;;5052670;28;20171;-95
2021/07/23 12:30:49;;;;;;;8.20;7.80;;;37.90;28.60;;;;;;5069862;28;20428;-92
2021/07/23 12:33:28;;;;;;;8.37;7.97;;;38.20;28.40;;;;;;5090462;28;20401;-89
2021/07/23 12:35:58;;;;;;;9.87;8.90;;;38.10;28.70;;;;;;5068352;28;20463;-92
2021/07/23 12:38:31;;;;;;;9.70;8.90;;;36.80;29.30;;;;;;5105130;22;20489;-94
2021/07/23 12:41:17;;;;;;;48.60;15.83;;;37.20;29.60;;;;;;5048506;28;20844;-91
2021/07/23 12:44:06;;;;;;;12.37;10.60;;;37.00;30.00;;;;;;5070479;28;20472;-91
2021/07/23 12:46:35;;;;;;;10.80;10.10;;;35.50;29.80;;;;;;5050297;28;20433;-94
2021/07/23 12:49:15;;;;;;;9.40;8.80;;;34.70;30.90;;;;;;5047602;28;20417;-93
2021/07/23 12:51:45;;;;;;;11.33;10.37;;;35.80;31.00;;;;;;5048803;28;20421;-91
2021/07/23 12:54:11;;;;;;;10.73;10.03;;;35.30;30.60;;;;;;5043711;28;20512;-91
2021/07/23 12:56:47;;;;;;;17.20;15.77;;;35.40;31.00;;;;;;5051490;28;20480;-92
2021/07/23 12:59:30;;;;;;;11.27;10.43;;;37.40;31.70;;;;;;5046551;28;20402;-89
2021/07/23 13:01:57;;;;;;;10.10;9.30;;;33.80;30.60;;;;;;5028146;28;20418;-91
2021/07/23 13:04:24;;;;;;;9.13;8.63;;;35.50;29.90;;;;;;5052444;28;20522;-91
2021/07/23 13:06:50;;;;;;;9.30;8.40;;;35.60;31.80;;;;;;5065122;28;20406;-90
2021/07/23 13:09:17;;;;;;;9.40;8.40;;;35.70;31.10;;;;;;5066276;28;20480;-92